Aérodrome :
LOGIN :

S'inscrire | Disclaimer

   EN    FR    IT 

 










Légende :    VFR   VFR Marginal   IFR   IFR Intensif   IFR Très Intensif
Visi : 
Plafond : 
>= 8 km
>= 3000ft
5 à 8 km
1000 à 3000 ft
1500m à 5 km
500 à 1000 ft
800 à 1500m
200 à 500 ft
< 800m
< 200 ft
Symboles :   Orages  Brouillard  Fortes neiges  Fortes précipitations  Vent > 20 kt
SIGMETs :   Divers  Orages  Givrage  Turbulence  Onde Orograph.  Cendres Volcan.







- Altitude de l'aérodrome : 2096 ft
- Code IATA : AUR
- Voir les cartes d'approche


LFLW - Aurillac

DERNIER METAR :
  • 222030Z AUTO 00000KT 9999 BKN041 16/13 Q1020

METARs EXPIRÉS :
  • 222000Z AUTO 00000KT 9999 SCT047 BKN100 17/13 Q1019
  • 221930Z AUTO 28003KT CAVOK 18/13 Q1019
  • 221900Z AUTO 28003KT CAVOK 18/13 Q1019
  • 221830Z AUTO 28004KT CAVOK 19/13 Q1018
  • 221800Z AUTO 29007KT 9999 FEW052 20/13 Q1018

TAF TAF LFLW
Valide du 22 à 15h jusqu'au 23 à 00h UTC


221400Z 2215/2224 28005KT 9999 BKN020 OVC033
PROB30
TEMPO 2215/2220 SCT026TCU
Pas de NOTAMs connus pour ce terrain.



MET'MAP, la Météo Aéronautique d'un coup d'oeil ! - Copyright ORBIFLY Décembre 2007 - Disclaimer

ORBIFLY MET'MAP TEAM :

Programmation & Développement : Alexandra Zaïnal
Conception & Développement : Baudouin d'Aumeries
Co-Programmation & Développement : Marc-Olivier Méhu
Soutien technique & logistique : Manuel Goepfert

Contact : metmap@orbifly.com




SOURCES & CREDITS :

   NOAA